CON weather

Concord Municipal Airport
Concord, New Hampshire, United States

Public forecast

Using degrees Fahrenheit for public forecast. Weather courtesy of forecast.io.

Current aviation weather report (METAR) for Concord Municipal Airport

Retrieved 2019/10/17 02:40 UTC (0 seconds ago):

KCON 170240Z AUTO 08008KT 4SM RA BR SCT011 BKN019 OVC033 11/09 A2956

Aviation forecast (TAF) for Concord Municipal Airport

Retrieved 2019-10-17 00:27 UTC (2 hours ago):

TAF KCON 162325Z 1700/1724 09011G17KT P6SM FEW023 BKN035 OVC060 FM170400 08013G21KT 4SM RA BR OVC010 FM170900 06020G32KT 4SM +RA BR OVC003 WS020/09050KT FM171300 01013G21KT 4SM RA OVC008 WS020/17020KT FM171500 27012G20KT 4SM -RA OVC010